createdAt,value
2019-03-20T00:01:57.609Z,9.30
2019-03-20T00:04:29.285Z,9.30
2019-03-20T00:07:01.357Z,9.30
2019-03-20T00:09:33.030Z,9.30
2019-03-20T00:12:04.829Z,9.30
2019-03-20T00:14:36.613Z,9.30
2019-03-20T00:17:08.384Z,9.30
2019-03-20T00:19:42.345Z,9.30
2019-03-20T00:22:14.061Z,9.20
2019-03-20T00:24:45.751Z,9.20
2019-03-20T00:27:17.453Z,9.20
2019-03-20T00:29:49.713Z,9.20
2019-03-20T00:32:21.518Z,9.20
2019-03-20T00:35:00.907Z,9.10
2019-03-20T00:37:26.903Z,9.00
2019-03-20T00:39:58.583Z,9.00
2019-03-20T00:42:30.246Z,9.00
2019-03-20T00:45:02.022Z,8.90
2019-03-20T00:47:33.751Z,8.90
2019-03-20T00:50:08.206Z,8.80
2019-03-20T00:52:39.947Z,8.80
2019-03-20T00:55:12.159Z,8.80
2019-03-20T00:57:43.938Z,8.70
2019-03-20T01:00:17.317Z,8.70
2019-03-20T01:02:49.019Z,8.70
2019-03-20T01:05:21.695Z,8.70
2019-03-20T01:07:54.024Z,8.70
2019-03-20T01:10:25.716Z,8.70
2019-03-20T01:12:57.507Z,8.80
2019-03-20T01:15:29.855Z,8.80
2019-03-20T01:18:01.721Z,8.80
2019-03-20T01:20:33.396Z,8.80
2019-03-20T01:23:05.226Z,8.80
2019-03-20T01:25:36.924Z,8.80
2019-03-20T01:28:08.595Z,8.80
2019-03-20T01:30:40.357Z,8.80
2019-03-20T01:33:12.447Z,8.80
2019-03-20T01:35:44.144Z,8.80
2019-03-20T01:38:15.832Z,8.80
2019-03-20T01:40:47.582Z,8.80
2019-03-20T01:43:19.283Z,8.80
2019-03-20T01:45:51.006Z,8.80
2019-03-20T01:48:22.706Z,8.80
2019-03-20T01:50:54.396Z,8.90
2019-03-20T01:53:26.098Z,8.90
2019-03-20T01:55:57.800Z,8.90
2019-03-20T01:58:29.527Z,8.90
2019-03-20T02:01:01.208Z,8.90
2019-03-20T02:03:32.887Z,8.90
2019-03-20T02:06:04.535Z,8.90
2019-03-20T02:08:36.220Z,8.90
2019-03-20T02:11:07.890Z,8.90
2019-03-20T02:13:39.664Z,8.80
2019-03-20T02:16:11.391Z,8.90
2019-03-20T02:18:44.200Z,8.90
2019-03-20T02:21:15.961Z,8.80
2019-03-20T02:23:47.643Z,8.80
2019-03-20T02:26:19.293Z,8.80
2019-03-20T02:28:50.971Z,8.80
2019-03-20T02:31:22.642Z,8.80
2019-03-20T02:33:54.335Z,8.70
2019-03-20T02:36:26.089Z,8.70
2019-03-20T02:38:57.832Z,8.60
2019-03-20T02:41:29.596Z,8.60
2019-03-20T02:44:01.295Z,8.50
2019-03-20T02:46:33.036Z,8.50
2019-03-20T02:49:04.727Z,8.50
2019-03-20T02:51:36.421Z,8.40
2019-03-20T02:54:08.133Z,8.40
2019-03-20T02:56:39.968Z,8.30
2019-03-20T02:59:11.724Z,8.30
2019-03-20T03:01:43.400Z,8.20
2019-03-20T03:04:15.071Z,8.20
2019-03-20T03:06:46.861Z,8.10
2019-03-20T03:09:18.651Z,8.10
2019-03-20T03:11:50.360Z,8.10
2019-03-20T03:14:22.105Z,8.10
2019-03-20T03:16:53.790Z,8.00
2019-03-20T03:19:25.557Z,8.00
2019-03-20T03:21:57.311Z,8.00
2019-03-20T03:24:29.066Z,8.00
2019-03-20T03:27:00.722Z,7.90
2019-03-20T03:29:32.438Z,7.90
2019-03-20T03:32:05.098Z,7.90
2019-03-20T03:34:36.847Z,7.90
2019-03-20T03:37:08.615Z,7.90
2019-03-20T03:39:40.358Z,7.80
2019-03-20T03:42:12.025Z,7.80
2019-03-20T03:44:44.430Z,7.80
2019-03-20T03:47:16.286Z,7.80
2019-03-20T03:49:48.106Z,7.80
2019-03-20T03:52:19.882Z,7.80
2019-03-20T03:54:52.998Z,7.80
2019-03-20T03:57:24.681Z,7.90
2019-03-20T03:59:56.385Z,7.90
2019-03-20T04:02:28.507Z,7.90
2019-03-20T04:05:00.470Z,7.90
2019-03-20T04:07:32.339Z,7.90
2019-03-20T04:10:04.384Z,7.90
2019-03-20T04:12:36.164Z,7.90
2019-03-20T04:15:09.438Z,7.90
2019-03-20T04:17:41.124Z,7.90
2019-03-20T04:20:14.498Z,7.90
2019-03-20T04:22:46.197Z,7.80
2019-03-20T04:25:19.240Z,7.80
2019-03-20T04:27:50.989Z,7.70
2019-03-20T04:30:22.654Z,7.70
2019-03-20T04:32:54.388Z,7.60
2019-03-20T04:35:26.085Z,7.60
2019-03-20T04:37:57.787Z,7.60
2019-03-20T04:40:29.456Z,7.50
2019-03-20T04:43:01.218Z,7.50
2019-03-20T04:45:32.952Z,7.50
2019-03-20T04:48:04.727Z,7.40
2019-03-20T04:50:36.376Z,7.40
2019-03-20T04:53:08.143Z,7.30
2019-03-20T04:55:39.904Z,7.30
2019-03-20T04:58:11.662Z,7.20
2019-03-20T05:00:43.319Z,7.30
2019-03-20T05:03:15.138Z,7.30
2019-03-20T05:05:46.884Z,7.30
2019-03-20T05:08:18.615Z,7.30
2019-03-20T05:10:50.407Z,7.30
2019-03-20T05:13:22.088Z,7.30
2019-03-20T05:15:53.788Z,7.30
2019-03-20T05:18:25.472Z,7.40
2019-03-20T05:20:57.176Z,7.30
2019-03-20T05:23:28.873Z,7.40
2019-03-20T05:26:00.622Z,7.40
2019-03-20T05:28:32.322Z,7.40
2019-03-20T05:31:04.008Z,7.40
2019-03-20T05:33:35.703Z,7.40
2019-03-20T05:36:07.500Z,7.40
2019-03-20T05:38:39.208Z,7.40
2019-03-20T05:41:10.855Z,7.40
2019-03-20T05:43:42.512Z,7.40
2019-03-20T05:46:14.208Z,7.50
2019-03-20T05:48:45.870Z,7.50
2019-03-20T05:51:17.638Z,7.50
2019-03-20T05:53:49.314Z,7.50
2019-03-20T05:56:20.974Z,7.50
2019-03-20T05:58:52.641Z,7.60
2019-03-20T06:01:24.390Z,7.60
2019-03-20T06:03:56.714Z,7.60
2019-03-20T06:06:28.391Z,7.70
2019-03-20T06:09:00.124Z,7.70
2019-03-20T06:11:31.885Z,7.70
2019-03-20T06:14:04.528Z,7.80
2019-03-20T06:16:36.322Z,7.80
2019-03-20T06:19:08.006Z,7.90
2019-03-20T06:21:39.682Z,7.90
2019-03-20T06:24:11.366Z,7.90
2019-03-20T06:26:43.089Z,8.00
2019-03-20T06:29:14.750Z,8.00
2019-03-20T06:31:46.450Z,8.00
2019-03-20T06:34:18.113Z,8.00
2019-03-20T06:36:49.866Z,8.10
2019-03-20T06:39:21.524Z,8.10
2019-03-20T06:41:53.292Z,8.20
2019-03-20T06:44:24.984Z,8.20
2019-03-20T06:46:56.754Z,8.20
2019-03-20T06:49:28.438Z,8.30
2019-03-20T06:52:00.254Z,8.40
2019-03-20T06:54:31.895Z,8.50
2019-03-20T06:57:03.599Z,8.50
2019-03-20T07:00:16.693Z,8.60
2019-03-20T07:02:50.183Z,8.60
2019-03-20T07:05:54.479Z,8.70
2019-03-20T07:08:28.583Z,8.70
2019-03-20T07:11:09.130Z,8.80
2019-03-20T07:13:40.947Z,8.80
2019-03-20T07:16:12.681Z,8.80
2019-03-20T07:18:44.369Z,8.80
2019-03-20T07:21:18.483Z,8.90
2019-03-20T07:23:49.482Z,8.90
2019-03-20T07:26:21.206Z,8.90
2019-03-20T07:28:52.964Z,9.00
2019-03-20T07:31:24.736Z,9.10
2019-03-20T07:33:56.468Z,9.20
2019-03-20T07:36:28.183Z,9.40
2019-03-20T07:38:59.943Z,9.60
2019-03-20T07:41:31.766Z,10.10
2019-03-20T07:44:03.511Z,10.90
2019-03-20T07:46:35.229Z,11.90
2019-03-20T07:49:06.935Z,12.80
2019-03-20T07:51:38.698Z,13.50
2019-03-20T07:54:10.385Z,13.80
2019-03-20T07:56:42.176Z,13.80
2019-03-20T07:59:15.995Z,13.80
2019-03-20T08:01:47.795Z,13.60
2019-03-20T08:04:19.894Z,13.60
2019-03-20T08:06:51.677Z,13.40
2019-03-20T08:09:25.580Z,13.40
2019-03-20T08:11:56.847Z,13.50
2019-03-20T08:14:28.635Z,13.50
2019-03-20T08:17:00.394Z,13.70
2019-03-20T08:19:32.083Z,13.90
2019-03-20T08:22:03.814Z,14.20
2019-03-20T08:24:35.533Z,14.10
2019-03-20T08:27:07.204Z,14.00
2019-03-20T08:29:38.885Z,14.00
2019-03-20T08:32:10.646Z,14.00
2019-03-20T08:34:42.454Z,14.10
2019-03-20T08:37:14.324Z,14.10
2019-03-20T08:39:46.047Z,14.10
2019-03-20T08:42:17.769Z,14.20
2019-03-20T08:44:49.541Z,14.30
2019-03-20T08:47:21.325Z,14.40
2019-03-20T08:49:53.184Z,14.20
2019-03-20T08:52:24.867Z,13.90
2019-03-20T08:54:56.665Z,13.90
2019-03-20T08:57:28.433Z,14.00
2019-03-20T09:00:00.352Z,14.10
2019-03-20T09:02:32.016Z,14.10
2019-03-20T09:05:03.989Z,14.10
2019-03-20T09:07:46.684Z,14.00
2019-03-20T09:10:11.847Z,14.00
2019-03-20T09:12:43.566Z,14.00
2019-03-20T09:15:16.141Z,14.00
2019-03-20T09:17:47.866Z,14.00
2019-03-20T09:20:19.549Z,14.00
2019-03-20T09:22:51.346Z,14.10
2019-03-20T09:25:23.158Z,14.10
2019-03-20T09:27:54.955Z,14.20
2019-03-20T09:30:26.675Z,14.40
2019-03-20T09:32:58.611Z,14.40
2019-03-20T09:35:30.298Z,14.50
2019-03-20T09:38:02.002Z,14.60
2019-03-20T09:40:33.689Z,14.50
2019-03-20T09:43:05.379Z,14.50
2019-03-20T09:45:37.090Z,14.40
2019-03-20T09:48:08.815Z,14.50
2019-03-20T09:50:40.524Z,14.10
2019-03-20T09:53:12.534Z,14.20
2019-03-20T09:55:44.292Z,14.40
2019-03-20T09:58:15.979Z,14.60
2019-03-20T10:00:47.749Z,14.80
2019-03-20T10:03:19.417Z,14.80
2019-03-20T10:05:51.106Z,14.80
2019-03-20T10:08:22.809Z,15.00
2019-03-20T10:10:54.484Z,15.10
2019-03-20T10:13:26.244Z,15.40
2019-03-20T10:15:57.952Z,16.00
2019-03-20T10:18:29.626Z,16.50
2019-03-20T10:21:01.343Z,16.60
2019-03-20T10:23:33.045Z,16.70
2019-03-20T10:26:04.743Z,16.80
2019-03-20T10:28:36.401Z,16.60
2019-03-20T10:31:08.160Z,16.60
2019-03-20T10:33:39.820Z,16.70
2019-03-20T10:36:12.897Z,16.50
2019-03-20T10:38:44.674Z,16.50
2019-03-20T10:41:16.408Z,16.70
2019-03-20T10:43:48.165Z,16.50
2019-03-20T10:46:19.955Z,16.90
2019-03-20T10:48:52.496Z,17.20
2019-03-20T10:51:24.269Z,17.00
2019-03-20T10:53:55.995Z,16.70
2019-03-20T10:56:27.862Z,16.80
2019-03-20T10:58:59.608Z,16.80
2019-03-20T11:01:42.200Z,16.70
2019-03-20T11:04:06.586Z,16.70
2019-03-20T11:06:38.370Z,16.70
2019-03-20T11:09:18.257Z,16.90
2019-03-20T11:11:43.506Z,17.00
2019-03-20T11:14:15.201Z,17.10
2019-03-20T11:16:46.866Z,16.80
2019-03-20T11:19:18.609Z,16.90
2019-03-20T11:21:50.372Z,16.70
2019-03-20T11:24:22.345Z,16.80
2019-03-20T11:26:54.429Z,16.80
2019-03-20T11:29:26.189Z,16.80
2019-03-20T11:31:57.968Z,16.80
2019-03-20T11:34:29.800Z,16.90
2019-03-20T11:37:01.599Z,16.60
2019-03-20T11:39:33.348Z,16.70
2019-03-20T11:42:05.043Z,16.70
2019-03-20T11:44:36.702Z,16.70
2019-03-20T11:47:08.416Z,17.00
2019-03-20T11:49:40.174Z,17.20
2019-03-20T11:52:11.874Z,17.20
2019-03-20T11:54:43.586Z,17.20
2019-03-20T11:57:15.282Z,17.40
2019-03-20T11:59:46.984Z,17.40
2019-03-20T12:02:27.635Z,17.40
2019-03-20T12:04:53.988Z,17.40
2019-03-20T12:07:25.520Z,17.40
2019-03-20T12:09:58.896Z,17.00
2019-03-20T12:12:30.813Z,16.70
2019-03-20T12:15:02.560Z,16.60
2019-03-20T12:17:34.246Z,16.50
2019-03-20T12:20:08.821Z,16.50
2019-03-20T12:22:40.569Z,16.40
2019-03-20T12:25:14.972Z,16.50
2019-03-20T12:27:46.771Z,16.60
2019-03-20T12:30:20.863Z,16.50
2019-03-20T12:32:52.621Z,16.40
2019-03-20T12:35:25.149Z,16.30
2019-03-20T12:37:56.858Z,16.10
2019-03-20T12:40:29.485Z,15.90
2019-03-20T12:43:01.306Z,16.00
2019-03-20T12:45:33.632Z,16.10
2019-03-20T12:48:05.746Z,16.00
2019-03-20T12:50:37.418Z,15.90
2019-03-20T12:53:09.123Z,15.90
2019-03-20T12:55:40.833Z,15.90
2019-03-20T12:58:12.556Z,16.00
2019-03-20T13:03:15.110Z,16.10
2019-03-20T13:05:47.134Z,16.00
2019-03-20T13:08:18.914Z,16.10
2019-03-20T13:10:50.556Z,16.20
2019-03-20T13:13:22.265Z,16.30
2019-03-20T13:15:53.974Z,16.20
2019-03-20T13:18:25.775Z,16.20
2019-03-20T13:20:57.461Z,16.30
2019-03-20T13:23:31.091Z,16.30
2019-03-20T13:26:05.095Z,16.40
2019-03-20T13:28:36.865Z,16.40
2019-03-20T13:31:12.356Z,16.30
2019-03-20T13:33:44.052Z,16.40
2019-03-20T13:36:15.766Z,16.50
2019-03-20T13:38:47.466Z,16.70
2019-03-20T13:41:19.248Z,16.70
2019-03-20T13:43:50.956Z,16.80
2019-03-20T13:46:22.668Z,16.80
2019-03-20T13:48:54.337Z,16.90
2019-03-20T13:51:26.032Z,17.00
2019-03-20T13:53:57.702Z,16.90
2019-03-20T13:56:29.480Z,16.70
2019-03-20T13:59:01.152Z,16.80
2019-03-20T14:01:32.904Z,16.80
2019-03-20T14:04:04.560Z,16.90
2019-03-20T14:06:36.258Z,16.80
2019-03-20T14:09:08.723Z,16.90
2019-03-20T14:11:41.606Z,17.20
2019-03-20T14:14:13.440Z,17.50
2019-03-20T14:16:45.197Z,17.60
2019-03-20T14:19:16.974Z,17.90
2019-03-20T14:21:48.812Z,18.10
2019-03-20T14:24:20.513Z,17.90
2019-03-20T14:26:52.375Z,18.00
2019-03-20T14:29:24.106Z,17.90
2019-03-20T14:31:55.780Z,17.80
2019-03-20T14:34:27.475Z,17.90
2019-03-20T14:36:59.162Z,17.90
2019-03-20T14:39:30.956Z,18.00
2019-03-20T14:42:02.619Z,18.00
2019-03-20T14:44:33.357Z,18.00
2019-03-20T14:47:05.030Z,17.70
2019-03-20T14:49:36.706Z,17.40
2019-03-20T14:52:20.208Z,17.40
2019-03-20T14:54:52.343Z,17.40
2019-03-20T14:57:24.065Z,17.40
2019-03-20T14:59:55.772Z,17.40
2019-03-20T15:02:27.531Z,17.30
2019-03-20T15:04:59.211Z,17.10
2019-03-20T15:07:30.983Z,17.10
2019-03-20T15:10:02.774Z,17.00
2019-03-20T15:12:34.756Z,17.00
2019-03-20T15:15:11.111Z,17.00
2019-03-20T15:17:42.908Z,16.80
2019-03-20T15:20:14.643Z,16.90
2019-03-20T15:22:46.350Z,17.00
2019-03-20T15:25:18.122Z,16.90
2019-03-20T15:27:49.893Z,16.80
2019-03-20T15:30:21.761Z,16.80
2019-03-20T15:32:53.443Z,16.90
2019-03-20T15:35:25.207Z,16.90
2019-03-20T15:37:56.889Z,17.00
2019-03-20T15:40:29.912Z,16.80
2019-03-20T15:43:01.601Z,16.70
2019-03-20T15:45:33.375Z,16.70
2019-03-20T15:48:05.124Z,16.70
2019-03-20T15:50:36.805Z,16.70
2019-03-20T15:53:08.555Z,16.80
2019-03-20T15:55:40.245Z,16.80
2019-03-20T15:58:11.914Z,16.80
2019-03-20T16:00:43.711Z,16.70
2019-03-20T16:03:16.429Z,16.60
2019-03-20T16:05:48.227Z,16.50
2019-03-20T16:08:20.021Z,16.50
2019-03-20T16:10:51.898Z,16.50
2019-03-20T16:13:24.099Z,16.40
2019-03-20T16:15:55.807Z,16.30
2019-03-20T16:18:27.556Z,16.30
2019-03-20T16:20:59.262Z,16.20
2019-03-20T16:23:31.050Z,16.20
2019-03-20T16:26:03.937Z,16.20
2019-03-20T16:28:35.624Z,16.20
2019-03-20T16:31:07.285Z,16.20
2019-03-20T16:33:38.965Z,16.10
2019-03-20T16:36:10.648Z,16.10
2019-03-20T16:38:42.337Z,16.00
2019-03-20T16:41:16.961Z,16.00
2019-03-20T16:43:47.512Z,15.90
2019-03-20T16:46:19.164Z,15.90
2019-03-20T16:48:50.926Z,15.80
2019-03-20T16:51:22.625Z,15.80
2019-03-20T16:53:54.909Z,15.70
2019-03-20T16:56:26.636Z,15.70
2019-03-20T16:58:58.344Z,15.60
2019-03-20T17:01:31.161Z,15.50
2019-03-20T17:04:02.922Z,15.40
2019-03-20T17:06:34.597Z,15.40
2019-03-20T17:09:07.611Z,15.30
2019-03-20T17:11:39.338Z,15.30
2019-03-20T17:14:12.750Z,15.30
2019-03-20T17:16:44.422Z,15.30
2019-03-20T17:19:16.113Z,15.20
2019-03-20T17:21:47.859Z,15.20
2019-03-20T17:24:19.641Z,15.10
2019-03-20T17:26:51.408Z,15.00
2019-03-20T17:29:23.580Z,15.00
2019-03-20T17:31:55.342Z,14.90
2019-03-20T17:34:27.127Z,14.90
2019-03-20T17:36:58.823Z,14.90
2019-03-20T17:39:30.858Z,14.90
2019-03-20T17:42:02.562Z,14.90
2019-03-20T17:44:34.295Z,14.90
2019-03-20T17:47:06.089Z,14.80
2019-03-20T17:49:37.786Z,14.70
2019-03-20T17:52:09.634Z,14.60
2019-03-20T17:54:41.356Z,14.60
2019-03-20T17:57:13.139Z,14.60
2019-03-20T17:59:44.870Z,14.40
2019-03-20T18:02:23.581Z,14.40
2019-03-20T18:04:50.004Z,14.40
2019-03-20T18:07:21.709Z,14.30
2019-03-20T18:09:53.747Z,14.30
2019-03-20T18:12:25.470Z,14.30
2019-03-20T18:14:57.297Z,14.20
2019-03-20T18:17:28.997Z,14.20
2019-03-20T18:20:00.719Z,14.10
2019-03-20T18:22:32.597Z,14.20
2019-03-20T18:25:04.753Z,14.10
2019-03-20T18:27:36.463Z,14.10
2019-03-20T18:30:15.568Z,14.00
2019-03-20T18:32:47.266Z,14.00
2019-03-20T18:35:18.952Z,14.00
2019-03-20T18:37:50.749Z,13.90
2019-03-20T18:40:22.569Z,13.80
2019-03-20T18:42:54.417Z,13.70
2019-03-20T18:45:26.356Z,13.70
2019-03-20T18:47:58.164Z,13.70
2019-03-20T18:50:29.868Z,13.70
2019-03-20T18:53:01.589Z,13.60
2019-03-20T18:55:33.290Z,13.60
2019-03-20T18:58:05.267Z,13.60
2019-03-20T19:00:36.968Z,13.60
2019-03-20T19:03:08.719Z,13.60
2019-03-20T19:05:49.846Z,13.60
2019-03-20T19:08:21.723Z,13.50
2019-03-20T19:10:53.588Z,13.50
2019-03-20T19:13:25.421Z,13.40
2019-03-20T19:16:06.536Z,13.40
2019-03-20T19:18:38.296Z,13.40
2019-03-20T19:21:10.028Z,13.30
2019-03-20T19:23:41.793Z,13.30
2019-03-20T19:26:13.553Z,13.40
2019-03-20T19:28:45.348Z,13.40
2019-03-20T19:31:17.073Z,13.30
2019-03-20T19:33:48.817Z,13.30
2019-03-20T19:36:20.525Z,13.20
2019-03-20T19:38:52.278Z,13.20
2019-03-20T19:41:24.059Z,13.20
2019-03-20T19:43:55.837Z,13.20
2019-03-20T19:46:27.568Z,13.10
2019-03-20T19:48:59.317Z,13.10
2019-03-20T19:51:31.055Z,13.00
2019-03-20T19:54:02.941Z,13.00
2019-03-20T19:56:34.729Z,12.90
2019-03-20T19:59:06.445Z,12.90
2019-03-20T20:01:39.682Z,12.90
2019-03-20T20:04:11.425Z,12.90
2019-03-20T20:06:43.265Z,12.90
2019-03-20T20:09:15.115Z,12.90
2019-03-20T20:11:47.064Z,12.80
2019-03-20T20:14:18.762Z,12.80
2019-03-20T20:16:50.491Z,12.70
2019-03-20T20:19:22.278Z,12.60
2019-03-20T20:21:54.063Z,12.50
2019-03-20T20:24:25.861Z,12.40
2019-03-20T20:26:57.671Z,12.30
2019-03-20T20:29:29.409Z,12.30
2019-03-20T20:32:01.188Z,12.20
2019-03-20T20:34:32.929Z,12.10
2019-03-20T20:37:06.725Z,12.10
2019-03-20T20:39:39.008Z,12.00
2019-03-20T20:42:10.752Z,11.90
2019-03-20T20:44:42.505Z,11.80
2019-03-20T20:47:14.287Z,11.80
2019-03-20T20:49:46.248Z,11.70
2019-03-20T20:52:19.622Z,11.60
2019-03-20T20:54:51.404Z,11.60
2019-03-20T20:57:23.168Z,11.50
2019-03-20T20:59:54.984Z,11.50
2019-03-20T21:02:26.734Z,11.40
2019-03-20T21:04:58.476Z,11.30
2019-03-20T21:07:30.186Z,11.30
2019-03-20T21:10:01.952Z,11.20
2019-03-20T21:12:33.797Z,11.10
2019-03-20T21:15:06.122Z,11.10
2019-03-20T21:17:57.194Z,11.10
2019-03-20T21:20:29.437Z,11.00
2019-03-20T21:23:37.751Z,11.00
2019-03-20T21:26:10.029Z,10.90
2019-03-20T21:29:29.228Z,10.90
2019-03-20T21:32:10.460Z,10.80
2019-03-20T21:35:41.674Z,10.70
2019-03-20T21:38:13.408Z,10.60
2019-03-20T21:41:16.874Z,10.60
2019-03-20T21:44:38.808Z,10.50
2019-03-20T21:47:38.444Z,10.40
2019-03-20T21:50:54.434Z,10.40
2019-03-20T21:53:36.744Z,10.30
2019-03-20T21:56:33.835Z,10.30
2019-03-20T21:59:33.827Z,10.20
2019-03-20T22:02:37.424Z,10.20
2019-03-20T22:05:22.890Z,10.10
2019-03-20T22:07:47.022Z,10.10
2019-03-20T22:11:02.186Z,10.00
2019-03-20T22:13:50.503Z,10.00
2019-03-20T22:17:08.648Z,9.90
2019-03-20T22:20:45.513Z,9.90
2019-03-20T22:23:57.174Z,9.80
2019-03-20T22:27:01.792Z,9.80
2019-03-20T22:29:34.012Z,9.70
2019-03-20T22:32:52.004Z,9.70
2019-03-20T22:35:44.563Z,9.60
2019-03-20T22:38:56.448Z,9.60
2019-03-20T22:42:21.633Z,9.50
2019-03-20T22:45:12.540Z,9.40
2019-03-20T22:48:40.489Z,9.40
2019-03-20T22:51:30.741Z,9.30
2019-03-20T22:54:57.564Z,9.30
2019-03-20T22:58:22.773Z,9.30
2019-03-20T23:00:55.499Z,9.20
2019-03-20T23:03:32.239Z,9.20
2019-03-20T23:06:04.701Z,9.20
2019-03-20T23:08:37.053Z,9.10
2019-03-20T23:11:10.280Z,9.10
2019-03-20T23:13:42.532Z,9.00
2019-03-20T23:16:16.483Z,9.00
2019-03-20T23:18:48.818Z,9.00
2019-03-20T23:21:21.025Z,8.90
2019-03-20T23:23:53.243Z,8.90
2019-03-20T23:26:25.492Z,8.90
2019-03-20T23:28:57.783Z,8.90
2019-03-20T23:31:30.114Z,8.90
2019-03-20T23:34:02.403Z,8.80
2019-03-20T23:36:34.670Z,8.80
2019-03-20T23:39:08.741Z,8.80
2019-03-20T23:41:40.972Z,8.70
2019-03-20T23:44:13.333Z,8.70
2019-03-20T23:46:45.576Z,8.70
2019-03-20T23:49:21.011Z,8.60
2019-03-20T23:51:53.263Z,8.60
2019-03-20T23:54:37.410Z,8.50
2019-03-20T23:57:09.663Z,8.50
2019-03-20T23:59:41.977Z,8.50
